Time;durP1;ratioP1;P1;durP2;ratioP2;P2;SDS_P1;SDS_P2;PMS_P1;PMS_P2;Temp;Humidity;BMP_temperature;BMP_pressure;BME280_temperature;BME280_humidity;BME280_pressure;Samples;Min_cycle;Max_cycle;Signal;HPM_P1;HPM_P2
2023/01/26 00:01:42;;;;;;;132.70;27.20;;;0.20;99.90;;;;;;5077462;28;20096;-84
2023/01/26 00:04:21;;;;;;;;;;;;;;;;;;;;;
2023/01/26 00:06:50;;;;;;;123.97;24.90;;;0.30;99.90;;;;;;5084076;28;20044;-84
2023/01/26 00:09:23;;;;;;;134.90;25.95;;;0.20;99.90;;;;;;5077538;28;20492;-84
2023/01/26 00:12:00;;;;;;;121.28;24.73;;;0.20;99.90;;;;;;5080770;28;20048;-83
2023/01/26 00:14:29;;;;;;;120.72;26.23;;;0.20;99.90;;;;;;5064996;28;20047;-83
2023/01/26 00:17:29;;;;;;;117.78;25.05;;;0.20;99.90;;;;;;5077336;28;20048;-84
2023/01/26 00:20:31;;;;;;;126.30;26.00;;;0.30;99.90;;;;;;5079158;28;20112;-84
2023/01/26 00:23:24;;;;;;;112.07;24.75;;;0.20;99.90;;;;;;5056742;28;20048;-85
2023/01/26 00:26:02;;;;;;;;;;;;;;;;;;;;;
2023/01/26 00:31:51;;;;;;;101.75;22.05;;;0.10;99.90;;;;;;5050670;28;20057;-85
2023/01/26 00:34:32;;;;;;;101.60;22.83;;;0.10;99.90;;;;;;5027090;28;20131;-85
2023/01/26 00:37:11;;;;;;;88.93;21.45;;;0.10;99.90;;;;;;5037355;28;20083;-84
2023/01/26 00:39:46;;;;;;;116.47;24.27;;;0.20;99.90;;;;;;5024695;28;20063;-84
2023/01/26 00:42:20;;;;;;;112.25;22.83;;;0.00;99.90;;;;;;5034809;28;20033;-84
2023/01/26 00:44:59;;;;;;;;;;;;;;;;;;;;;
2023/01/26 00:47:30;;;;;;;108.50;23.23;;;0.10;99.90;;;;;;5036591;28;20498;-84
2023/01/26 00:50:15;;;;;;;;;;;;;;;;;;;;;
2023/01/26 00:53:10;;;;;;;99.05;21.77;;;0.20;99.90;;;;;;5036462;28;20068;-88
2023/01/26 00:55:52;;;;;;;;;;;;;;;;;;;;;
2023/01/26 00:58:23;;;;;;;112.40;25.00;;;0.20;99.90;;;;;;5039789;28;20041;-84
2023/01/26 01:01:07;;;;;;;116.38;23.50;;;0.20;99.90;;;;;;5035744;28;20052;-84
2023/01/26 01:03:51;;;;;;;;;;;;;;;;;;;;;
2023/01/26 01:06:22;;;;;;;115.72;23.65;;;0.30;99.90;;;;;;5038970;28;20072;-82
2023/01/26 01:08:51;;;;;;;112.60;23.38;;;0.40;99.90;;;;;;5013021;28;20401;-83
2023/01/26 01:11:30;;;;;;;105.10;21.98;;;0.40;99.90;;;;;;5024709;28;20082;-81
2023/01/26 01:14:19;;;;;;;;;;;0.40;99.90;;;;;;5025556;28;20506;-81
2023/01/26 01:16:47;;;;;;;97.95;20.55;;;0.30;99.90;;;;;;5041425;28;19962;-82
2023/01/26 01:19:37;;;;;;;105.85;20.73;;;0.30;99.90;;;;;;5034129;28;20048;-81
2023/01/26 01:22:06;;;;;;;90.70;20.80;;;0.30;99.90;;;;;;5062293;28;20059;-83
2023/01/26 01:24:42;;;;;;;98.97;22.55;;;0.40;99.90;;;;;;5065567;28;20056;-83
2023/01/26 01:27:10;;;;;;;101.25;22.10;;;0.40;99.90;;;;;;5029519;28;20132;-82
2023/01/26 01:29:36;;;;;;;94.18;19.80;;;0.40;99.90;;;;;;5038809;28;20400;-84
2023/01/26 01:32:28;;;;;;;107.75;22.83;;;0.40;99.90;;;;;;5054452;28;20409;-83
2023/01/26 01:35:11;;;;;;;100.78;20.88;;;0.30;99.90;;;;;;5051971;28;20109;-82
2023/01/26 01:37:39;;;;;;;104.20;22.65;;;0.40;99.90;;;;;;5055195;28;20505;-82
2023/01/26 01:40:09;;;;;;;103.25;20.85;;;0.40;99.90;;;;;;5056679;28;20413;-82
2023/01/26 01:42:54;;;;;;;;;;;;;;;;;;;;;
2023/01/26 01:45:36;;;;;;;88.00;20.88;;;0.30;99.90;;;;;;5059505;28;20058;-82
2023/01/26 01:48:18;;;;;;;107.82;22.65;;;0.30;99.90;;;;;;5044305;28;20099;-83
2023/01/26 01:50:48;;;;;;;109.40;23.23;;;0.20;99.90;;;;;;5054712;28;20067;-83
2023/01/26 01:53:41;;;;;;;;;;;;;;;;;;;;;
2023/01/26 01:56:20;;;;;;;113.50;21.80;;;0.40;99.90;;;;;;5058910;28;20040;-82
2023/01/26 01:58:57;;;;;;;97.07;20.17;;;0.40;99.90;;;;;;5041829;28;20049;-83
2023/01/26 02:01:42;;;;;;;96.50;22.15;;;0.40;99.90;;;;;;5044274;28;20218;-83
2023/01/26 02:04:19;;;;;;;102.43;21.65;;;0.30;99.90;;;;;;5052743;28;20453;-82
2023/01/26 02:07:12;;;;;;;109.18;21.55;;;0.30;99.90;;;;;;5061654;28;20504;-84
2023/01/26 02:12:42;;;;;;;92.75;20.85;;;0.40;99.90;;;;;;5058444;28;20052;-86
2023/01/26 02:15:15;;;;;;;92.55;20.08;;;0.40;99.90;;;;;;5066984;28;20059;-83
2023/01/26 02:17:46;;;;;;;84.38;19.10;;;0.40;99.90;;;;;;5068984;28;20073;-82
2023/01/26 02:20:28;;;;;;;94.80;20.30;;;0.40;99.90;;;;;;5061555;28;20048;-82
2023/01/26 02:23:32;;;;;;;;;;;;;;;;;;;;;
2023/01/26 02:26:45;;;;;;;93.80;20.25;;;0.40;99.90;;;;;;5068300;28;20114;-85
2023/01/26 02:29:18;;;;;;;87.85;20.15;;;0.40;99.90;;;;;;5031882;28;20520;-82
2023/01/26 02:31:57;;;;;;;80.82;18.10;;;0.40;99.90;;;;;;5053631;28;20120;-82
2023/01/26 02:34:38;;;;;;;;;;;;;;;;;;;;;
2023/01/26 02:37:20;;;;;;;82.50;18.25;;;0.40;99.90;;;;;;5059901;28;20087;-83
2023/01/26 02:40:21;;;;;;;84.82;18.42;;;0.40;99.90;;;;;;5051629;28;20047;-83
2023/01/26 02:42:58;;;;;;;95.43;19.05;;;0.40;99.90;;;;;;5073959;28;20048;-82
2023/01/26 02:45:26;;;;;;;92.00;18.15;;;0.40;99.90;;;;;;5054424;28;20044;-82
2023/01/26 02:48:03;;;;;;;88.45;19.10;;;0.40;99.90;;;;;;5053862;28;20135;-83
2023/01/26 02:50:45;;;;;;;80.70;17.92;;;0.40;99.90;;;;;;5043479;28;20395;-82
2023/01/26 02:53:20;;;;;;;81.95;19.10;;;0.40;99.90;;;;;;5044670;28;20067;-82
2023/01/26 02:55:51;;;;;;;107.43;20.33;;;0.30;99.90;;;;;;5051671;28;20109;-82
2023/01/26 02:58:20;;;;;;;86.53;16.05;;;0.40;99.90;;;;;;5055326;28;20054;-82
2023/01/26 03:00:54;;;;;;;78.20;17.52;;;0.40;99.90;;;;;;5034698;28;20044;-83
2023/01/26 03:06:38;;;;;;;;;;;;;;;;;;;;;
2023/01/26 03:09:09;;;;;;;;;;;0.40;99.90;;;;;;5057818;28;20124;-84
2023/01/26 03:14:39;;;;;;;87.32;19.15;;;0.40;99.90;;;;;;5067758;28;20185;-82
2023/01/26 03:17:08;;;;;;;85.22;18.65;;;0.40;99.90;;;;;;5050417;28;20055;-83
2023/01/26 03:27:56;;;;;;;84.75;18.60;;;0.40;99.90;;;;;;5066810;28;20527;-81
2023/01/26 03:30:24;;;;;;;85.60;18.20;;;0.40;99.90;;;;;;5058967;28;20055;-82
2023/01/26 03:32:53;;;;;;;84.40;18.13;;;0.50;99.90;;;;;;5033458;28;20097;-81
2023/01/26 03:35:22;;;;;;;111.22;20.55;;;0.50;99.90;;;;;;5044960;28;20045;-81
2023/01/26 03:37:53;;;;;;;93.18;19.42;;;0.50;99.90;;;;;;5062308;28;20067;-81
2023/01/26 03:56:48;;;;;;;78.40;16.67;;;0.50;99.90;;;;;;5035002;28;20059;-82
2023/01/26 03:59:15;;;;;;;94.38;18.33;;;0.50;99.90;;;;;;5042306;28;20040;-82
2023/01/26 04:09:59;;;;;;;100.47;17.65;;;0.50;99.90;;;;;;5049725;28;20044;-81
2023/01/26 04:12:24;;;;;;;73.70;14.80;;;0.50;99.90;;;;;;5036380;28;20040;-81
2023/01/26 04:23:02;;;;;;;78.05;15.43;;;0.50;99.90;;;;;;5045421;28;20063;-82
2023/01/26 04:25:28;;;;;;;60.83;14.35;;;0.60;99.90;;;;;;5028446;28;20049;-81
2023/01/26 04:27:54;;;;;;;85.28;17.83;;;0.50;99.90;;;;;;5021564;28;20486;-82
2023/01/26 04:30:20;;;;;;;77.45;15.48;;;0.50;99.90;;;;;;5044630;28;20536;-80
2023/01/26 04:32:45;;;;;;;76.68;15.80;;;0.50;99.90;;;;;;5028394;28;20104;-80
2023/01/26 04:35:12;;;;;;;83.95;16.02;;;0.50;99.90;;;;;;5026553;28;20131;-80
2023/01/26 04:37:38;;;;;;;83.97;16.42;;;0.50;99.90;;;;;;5039194;28;20044;-81
2023/01/26 04:40:05;;;;;;;79.55;15.32;;;0.50;99.90;;;;;;5047977;28;20505;-80
2023/01/26 04:42:31;;;;;;;83.10;16.40;;;0.50;99.90;;;;;;5035090;28;20060;-80
2023/01/26 04:44:57;;;;;;;78.75;17.10;;;0.50;99.90;;;;;;5043143;28;20052;-82
2023/01/26 04:47:22;;;;;;;74.55;18.13;;;0.50;99.90;;;;;;5020983;28;20476;-81
2023/01/26 04:49:48;;;;;;;72.50;16.15;;;0.50;99.90;;;;;;5013221;28;20083;-81
2023/01/26 04:52:14;;;;;;;64.97;15.75;;;0.60;99.90;;;;;;5011502;28;20040;-81
2023/01/26 04:54:40;;;;;;;84.82;17.20;;;0.50;99.90;;;;;;5024273;28;20056;-81
2023/01/26 04:57:07;;;;;;;85.05;16.70;;;0.50;99.90;;;;;;5030621;28;20049;-80
2023/01/26 04:59:32;;;;;;;85.75;17.58;;;0.50;99.90;;;;;;5027694;28;20391;-80
2023/01/26 05:01:58;;;;;;;81.68;17.13;;;0.60;99.90;;;;;;5023816;28;20045;-80
2023/01/26 05:04:23;;;;;;;90.47;18.10;;;0.50;99.90;;;;;;5032456;28;20067;-81
2023/01/26 05:06:49;;;;;;;84.57;17.40;;;0.50;99.90;;;;;;5008769;28;20036;-80
2023/01/26 05:09:15;;;;;;;116.55;19.73;;;0.50;99.90;;;;;;5025621;28;20106;-82
2023/01/26 05:11:40;;;;;;;82.50;17.25;;;0.60;99.90;;;;;;5024290;28;20033;-81
2023/01/26 05:14:06;;;;;;;87.00;16.95;;;0.50;99.90;;;;;;5034189;28;20037;-79
2023/01/26 05:16:32;;;;;;;108.88;18.83;;;0.50;99.90;;;;;;5007735;28;20371;-81
2023/01/26 05:18:57;;;;;;;88.22;16.45;;;0.50;99.90;;;;;;5029982;28;20455;-80
2023/01/26 05:21:24;;;;;;;93.65;17.90;;;0.50;99.90;;;;;;5033671;28;20075;-80
2023/01/26 05:23:50;;;;;;;94.55;18.15;;;0.50;99.90;;;;;;5029587;28;20405;-80
2023/01/26 05:26:15;;;;;;;83.88;17.67;;;0.50;99.90;;;;;;5025086;28;20044;-82
2023/01/26 05:28:41;;;;;;;99.97;18.10;;;0.50;99.90;;;;;;5023026;28;20477;-82
2023/01/26 05:31:07;;;;;;;107.07;19.05;;;0.50;99.90;;;;;;5038951;28;20047;-80
2023/01/26 05:33:33;;;;;;;93.78;18.35;;;0.60;99.90;;;;;;5030257;28;20117;-82
2023/01/26 05:36:04;;;;;;;111.10;20.13;;;0.50;99.90;;;;;;5020643;28;20075;-86
2023/01/26 05:38:29;;;;;;;94.03;18.60;;;0.50;99.90;;;;;;5020731;28;20122;-82
2023/01/26 05:40:55;;;;;;;114.75;19.77;;;0.50;99.90;;;;;;5017851;28;20474;-82
2023/01/26 05:43:21;;;;;;;95.90;18.45;;;0.50;99.90;;;;;;5029542;28;20067;-83
2023/01/26 05:45:46;;;;;;;108.75;21.40;;;0.50;99.90;;;;;;5034351;28;20098;-84
2023/01/26 05:48:12;;;;;;;92.60;18.80;;;0.50;99.90;;;;;;5023187;28;20044;-85
2023/01/26 05:50:38;;;;;;;129.27;22.27;;;0.50;99.90;;;;;;5031124;28;20044;-84
2023/01/26 05:53:04;;;;;;;101.97;18.98;;;0.50;99.90;;;;;;5023057;28;20162;-84
2023/01/26 05:55:32;;;;;;;121.18;20.42;;;0.50;99.90;;;;;;5043508;28;20047;-84
2023/01/26 05:57:57;;;;;;;170.18;22.73;;;0.50;99.90;;;;;;5034856;28;20068;-83
2023/01/26 06:00:23;;;;;;;117.78;21.33;;;0.60;99.90;;;;;;5017967;28;20486;-83
2023/01/26 06:02:49;;;;;;;119.63;21.60;;;0.50;99.90;;;;;;5012021;28;20056;-83
2023/01/26 06:05:15;;;;;;;123.90;21.80;;;0.70;99.90;;;;;;5026059;28;20040;-86
2023/01/26 06:07:41;;;;;;;111.22;20.10;;;0.60;99.90;;;;;;5023837;28;20067;-84
2023/01/26 06:10:08;;;;;;;119.63;21.20;;;0.50;99.90;;;;;;5053279;28;20884;-83
2023/01/26 06:12:34;;;;;;;130.98;22.33;;;0.50;99.90;;;;;;4990488;28;20043;-80
2023/01/26 06:15:01;;;;;;;102.75;19.83;;;0.60;99.90;;;;;;4995628;28;20120;-80
2023/01/26 06:17:26;;;;;;;128.48;22.45;;;0.60;99.90;;;;;;5029200;28;20041;-79
2023/01/26 06:19:52;;;;;;;119.22;21.98;;;0.50;99.90;;;;;;5044355;28;20136;-81
2023/01/26 06:22:18;;;;;;;140.80;22.75;;;0.50;99.90;;;;;;5045551;28;20098;-80
2023/01/26 06:24:44;;;;;;;124.68;23.27;;;0.50;99.90;;;;;;5079452;28;20178;-80
2023/01/26 06:27:13;;;;;;;97.13;20.38;;;0.50;99.90;;;;;;5070296;28;20047;-79
2023/01/26 06:29:39;;;;;;;120.70;21.85;;;0.70;99.90;;;;;;5090101;28;20600;-80
2023/01/26 06:32:05;;;;;;;119.53;22.35;;;0.50;99.90;;;;;;5058796;28;20564;-79
2023/01/26 06:34:32;;;;;;;112.28;21.92;;;0.60;99.90;;;;;;5047786;28;20089;-85
2023/01/26 06:36:58;;;;;;;110.50;20.48;;;0.60;99.90;;;;;;5075157;28;20096;-81
2023/01/26 06:39:23;;;;;;;127.47;23.50;;;0.60;99.90;;;;;;5042010;28;20275;-81
2023/01/26 06:41:49;;;;;;;111.68;21.30;;;0.60;99.90;;;;;;5077263;28;20058;-80
2023/01/26 06:44:15;;;;;;;153.25;24.23;;;0.60;99.90;;;;;;5053790;28;20047;-81
2023/01/26 06:46:40;;;;;;;122.40;23.08;;;0.60;99.90;;;;;;5081280;28;20469;-83
2023/01/26 06:49:06;;;;;;;109.00;21.65;;;0.50;99.90;;;;;;5069425;28;20151;-82
2023/01/26 06:51:53;;;;;;;140.60;23.92;;;0.60;99.90;;;;;;5055977;28;20163;-85
2023/01/26 06:54:18;;;;;;;118.85;22.00;;;0.60;99.90;;;;;;5063946;28;20057;-82
2023/01/26 06:56:44;;;;;;;118.15;20.63;;;0.60;99.90;;;;;;5059426;28;20052;-84
2023/01/26 06:59:10;;;;;;;121.93;22.50;;;0.60;99.90;;;;;;5086556;28;20075;-83
2023/01/26 07:01:40;;;;;;;107.50;20.40;;;0.70;99.90;;;;;;5033801;28;20043;-86
2023/01/26 07:04:06;;;;;;;105.45;21.20;;;0.60;99.90;;;;;;5088061;28;20040;-83
2023/01/26 07:06:32;;;;;;;116.88;22.63;;;0.60;99.90;;;;;;5055795;28;20051;-82
2023/01/26 07:08:57;;;;;;;133.10;21.65;;;0.60;99.90;;;;;;5087903;28;20094;-83
2023/01/26 07:11:24;;;;;;;121.20;22.25;;;0.60;99.90;;;;;;5055017;28;20036;-83
2023/01/26 07:13:50;;;;;;;124.57;21.65;;;0.60;99.90;;;;;;5093420;28;20055;-82
2023/01/26 07:16:17;;;;;;;146.75;25.45;;;0.60;99.90;;;;;;5048983;28;20044;-83
2023/01/26 07:18:43;;;;;;;163.93;27.83;;;0.60;99.90;;;;;;5062728;28;20050;-83
2023/01/26 07:21:11;;;;;;;146.15;27.30;;;0.60;99.90;;;;;;5064177;28;20389;-82
2023/01/26 07:23:37;;;;;;;135.70;26.90;;;0.70;99.90;;;;;;5079700;28;20058;-87
2023/01/26 07:26:03;;;;;;;144.98;28.30;;;0.60;99.90;;;;;;5056202;28;20051;-83
2023/01/26 07:28:29;;;;;;;150.35;29.48;;;0.60;99.90;;;;;;5062083;28;20044;-83
2023/01/26 07:30:59;;;;;;;158.65;27.15;;;0.60;99.90;;;;;;5057061;28;20769;-83
2023/01/26 07:33:25;;;;;;;207.68;30.33;;;0.50;99.90;;;;;;5091374;28;20130;-83
2023/01/26 07:35:55;;;;;;;133.77;28.95;;;0.70;99.90;;;;;;5065682;28;20127;-87
2023/01/26 07:38:21;;;;;;;128.30;27.10;;;0.60;99.90;;;;;;5044800;28;20070;-82
2023/01/26 07:40:47;;;;;;;140.75;27.98;;;0.60;99.90;;;;;;5041134;28;20060;-82
2023/01/26 07:43:16;;;;;;;167.30;27.48;;;0.70;99.90;;;;;;5078877;28;20064;-83
2023/01/26 07:45:50;;;;;;;189.25;27.13;;;0.60;99.90;;;;;;5101365;28;20054;-86
2023/01/26 07:48:21;;;;;;;173.15;27.13;;;0.70;99.90;;;;;;5081623;28;20040;-83
2023/01/26 07:50:48;;;;;;;145.30;25.33;;;0.70;99.90;;;;;;5086661;28;20839;-83
2023/01/26 07:53:15;;;;;;;145.82;25.55;;;0.70;99.90;;;;;;5076562;28;20493;-83
2023/01/26 07:55:44;;;;;;;130.98;24.55;;;0.80;99.90;;;;;;5096609;28;20044;-87
2023/01/26 07:58:10;;;;;;;157.35;26.13;;;0.70;99.90;;;;;;5057107;28;20056;-88
2023/01/26 08:00:36;;;;;;;179.15;26.52;;;0.70;99.90;;;;;;5072370;28;20382;-83
2023/01/26 08:03:02;;;;;;;140.00;23.85;;;0.70;99.90;;;;;;5052504;28;20461;-85
2023/01/26 08:05:28;;;;;;;141.85;24.52;;;0.70;99.90;;;;;;5067426;28;20132;-86
2023/01/26 08:08:00;;;;;;;185.13;26.38;;;0.60;99.90;;;;;;5087579;27;20062;-83
2023/01/26 08:10:31;;;;;;;137.90;25.10;;;0.60;99.90;;;;;;5076465;28;20043;-83
2023/01/26 08:13:01;;;;;;;185.00;25.83;;;0.60;99.90;;;;;;5065557;28;20098;-83
2023/01/26 08:15:27;;;;;;;141.90;24.42;;;0.60;99.90;;;;;;5048364;28;20066;-83
2023/01/26 08:17:53;;;;;;;139.07;23.77;;;0.60;99.90;;;;;;5088932;28;20545;-83
2023/01/26 08:20:19;;;;;;;153.07;24.35;;;0.60;99.90;;;;;;5083496;28;20047;-82
2023/01/26 08:22:45;;;;;;;179.63;26.45;;;0.60;99.90;;;;;;5068755;28;20056;-89
2023/01/26 08:25:11;;;;;;;184.05;24.80;;;0.60;99.90;;;;;;5065595;28;20053;-82
2023/01/26 08:27:36;;;;;;;153.75;22.40;;;0.60;99.90;;;;;;5078673;27;20542;-83
2023/01/26 08:30:02;;;;;;;160.73;26.13;;;0.60;99.90;;;;;;5047516;28;20044;-85
2023/01/26 08:32:29;;;;;;;185.00;25.58;;;0.50;99.90;;;;;;5060492;28;20039;-84
2023/01/26 08:34:55;;;;;;;139.48;23.42;;;0.60;99.90;;;;;;5074898;28;20039;-83
2023/01/26 08:37:20;;;;;;;185.98;24.60;;;0.50;99.90;;;;;;5094974;28;20047;-83
2023/01/26 08:39:46;;;;;;;142.20;22.42;;;0.50;99.90;;;;;;5084979;28;20044;-83
2023/01/26 08:42:12;;;;;;;167.13;22.83;;;0.50;99.90;;;;;;5066601;28;20052;-81
2023/01/26 08:44:37;;;;;;;142.18;23.20;;;0.50;99.90;;;;;;5059746;28;20089;-83
2023/01/26 08:47:03;;;;;;;129.98;21.40;;;0.50;99.90;;;;;;5069772;28;20133;-84
2023/01/26 08:49:29;;;;;;;145.68;20.45;;;0.60;99.90;;;;;;5059755;28;20051;-83
2023/01/26 08:51:54;;;;;;;142.80;21.63;;;0.60;99.90;;;;;;5075783;28;20051;-83
2023/01/26 08:54:20;;;;;;;144.40;21.63;;;0.70;99.90;;;;;;5076498;28;20073;-83
2023/01/26 08:56:46;;;;;;;146.30;22.67;;;0.70;99.90;;;;;;5085940;28;20478;-83
2023/01/26 08:59:11;;;;;;;159.43;23.77;;;0.70;99.90;;;;;;5043148;28;20043;-83
2023/01/26 09:01:37;;;;;;;136.45;20.35;;;0.80;99.90;;;;;;5059871;28;20047;-84
2023/01/26 09:04:02;;;;;;;122.53;20.75;;;0.70;99.90;;;;;;5076826;28;20123;-83
2023/01/26 09:06:29;;;;;;;127.38;20.15;;;0.70;99.90;;;;;;5062804;28;20040;-83
2023/01/26 09:08:55;;;;;;;130.68;19.90;;;0.80;99.90;;;;;;5062916;28;20051;-83
2023/01/26 09:11:20;;;;;;;129.60;20.35;;;0.80;99.90;;;;;;5042490;28;20082;-82
2023/01/26 09:13:55;;;;;;;120.97;19.05;;;0.90;99.90;;;;;;5059970;28;20040;-83
2023/01/26 09:16:23;;;;;;;104.13;18.42;;;0.90;99.90;;;;;;5085571;28;20527;-83
2023/01/26 09:18:50;;;;;;;103.25;17.73;;;0.80;99.90;;;;;;5045904;28;20044;-83
2023/01/26 09:21:16;;;;;;;106.47;17.85;;;0.90;99.90;;;;;;5088814;28;20043;-83
2023/01/26 09:23:43;;;;;;;104.68;17.85;;;1.10;99.90;;;;;;5066146;28;20101;-82
2023/01/26 09:26:09;;;;;;;97.93;15.93;;;1.00;99.90;;;;;;5082297;28;20393;-83
2023/01/26 09:28:34;;;;;;;100.53;16.75;;;1.00;99.90;;;;;;5079436;28;20509;-82
2023/01/26 09:31:09;;;;;;;89.65;15.88;;;1.00;99.90;;;;;;5064681;28;20161;-85
2023/01/26 09:33:35;;;;;;;79.18;14.05;;;1.10;99.90;;;;;;5067336;28;20111;-83
2023/01/26 09:36:06;;;;;;;88.30;14.75;;;1.10;99.90;;;;;;5078520;28;20081;-82
2023/01/26 09:38:32;;;;;;;74.25;14.32;;;1.20;99.90;;;;;;5062707;28;20104;-84
2023/01/26 09:41:13;;;;;;;82.85;14.43;;;1.30;99.90;;;;;;5081870;28;20044;-83
2023/01/26 09:43:43;;;;;;;73.13;13.63;;;1.40;99.90;;;;;;5084210;28;20131;-82
2023/01/26 09:46:39;;;;;;;70.57;13.25;;;1.50;99.90;;;;;;5081189;28;20040;-81
2023/01/26 09:49:11;;;;;;;84.05;12.52;;;1.60;99.90;;;;;;5094911;28;20043;-87
2023/01/26 09:51:47;;;;;;;73.82;12.25;;;1.80;99.90;;;;;;5083360;28;20079;-81
2023/01/26 09:54:54;;;;;;;70.40;13.70;;;1.80;99.90;;;;;;5092040;28;20051;-81
2023/01/26 09:58:03;;;;;;;67.03;12.65;;;1.90;99.90;;;;;;5050301;28;20064;-82
2023/01/26 10:00:40;;;;;;;61.55;9.77;;;2.00;99.90;;;;;;5076920;28;20143;-81
2023/01/26 10:03:34;;;;;;;74.07;12.52;;;2.10;99.90;;;;;;5095346;28;20039;-81
2023/01/26 10:06:20;;;;;;;65.40;11.75;;;2.20;99.90;;;;;;5082485;28;20040;-85
2023/01/26 10:08:48;;;;;;;58.33;9.48;;;2.40;99.90;;;;;;5078275;28;20055;-82
2023/01/26 10:11:37;;;;;;;54.88;9.00;;;2.60;99.90;;;;;;5061608;28;20045;-82
2023/01/26 10:14:17;;;;;;;59.97;9.35;;;2.90;99.90;;;;;;5091757;28;20075;-87
2023/01/26 10:16:45;;;;;;;70.35;10.27;;;3.20;99.90;;;;;;5063118;28;20056;-83
2023/01/26 10:19:36;;;;;;;50.90;8.23;;;3.30;99.90;;;;;;5067005;28;20072;-82
2023/01/26 10:22:14;;;;;;;44.42;7.00;;;3.50;99.90;;;;;;5077457;28;20058;-87
2023/01/26 10:24:40;;;;;;;50.05;9.00;;;3.70;99.90;;;;;;5077183;28;20493;-82
2023/01/26 10:27:12;;;;;;;50.50;7.45;;;3.90;99.90;;;;;;5069216;28;20036;-82
2023/01/26 10:29:38;;;;;;;40.70;6.95;;;4.10;99.90;;;;;;5073630;28;20536;-82
2023/01/26 10:32:04;;;;;;;49.85;7.13;;;4.40;99.90;;;;;;5067333;28;20165;-87
2023/01/26 10:34:31;;;;;;;44.55;7.53;;;4.70;99.90;;;;;;5104243;28;20044;-82
2023/01/26 10:37:19;;;;;;;44.33;7.25;;;5.10;99.90;;;;;;5067152;28;20485;-81
2023/01/26 10:40:09;;;;;;;55.42;6.70;;;5.10;99.90;;;;;;5078044;28;20047;-82
2023/01/26 10:42:36;;;;;;;56.90;9.43;;;5.20;99.90;;;;;;5074484;28;20432;-82
2023/01/26 10:45:27;;;;;;;49.78;7.63;;;5.40;99.90;;;;;;5077653;28;20044;-83
2023/01/26 10:48:25;;;;;;;50.42;6.88;;;5.50;99.90;;;;;;5077009;28;20036;-82
2023/01/26 10:50:52;;;;;;;44.88;5.90;;;5.60;99.90;;;;;;5058641;28;20126;-83
2023/01/26 10:53:23;;;;;;;47.00;6.72;;;5.80;99.90;;;;;;5075293;28;20048;-82
2023/01/26 10:56:04;;;;;;;44.08;5.57;;;5.70;99.90;;;;;;5088920;28;20101;-83
2023/01/26 10:58:48;;;;;;;38.88;5.60;;;5.70;99.90;;;;;;5083755;28;20044;-83
2023/01/26 11:01:17;;;;;;;44.97;5.20;;;5.70;99.90;;;;;;5072362;28;20050;-83
2023/01/26 11:03:58;;;;;;;53.15;8.45;;;5.70;99.90;;;;;;5091653;28;20059;-85
2023/01/26 11:06:27;;;;;;;49.83;5.70;;;5.70;99.90;;;;;;5094486;28;20044;-82
2023/01/26 11:08:53;;;;;;;46.38;5.45;;;5.80;99.90;;;;;;5064769;28;20047;-82
2023/01/26 11:11:28;;;;;;;46.00;5.95;;;5.80;99.90;;;;;;5077395;28;20122;-82
2023/01/26 11:14:17;;;;;;;41.35;5.28;;;5.90;99.90;;;;;;5076185;28;20054;-81
2023/01/26 11:17:12;;;;;;;43.17;5.45;;;6.10;99.90;;;;;;5075064;28;20044;-84
2023/01/26 11:20:08;;;;;;;35.55;4.28;;;6.50;99.90;;;;;;5070115;28;20066;-82
2023/01/26 11:23:09;;;;;;;41.85;4.68;;;6.60;99.90;;;;;;5066447;28;20094;-83
2023/01/26 11:26:14;;;;;;;42.67;5.07;;;6.70;99.90;;;;;;5081576;28;20089;-82
2023/01/26 11:28:43;;;;;;;47.85;5.43;;;6.90;99.90;;;;;;5081178;28;20049;-83
2023/01/26 11:31:38;;;;;;;41.03;5.30;;;7.10;99.90;;;;;;5062543;28;20083;-82
2023/01/26 11:34:22;;;;;;;48.92;6.00;;;7.20;99.90;;;;;;5057324;28;20044;-83
2023/01/26 11:36:51;;;;;;;44.00;4.80;;;7.20;99.90;;;;;;5057624;28;20048;-82
2023/01/26 11:39:34;;;;;;;35.42;4.32;;;7.20;99.90;;;;;;5070270;28;20465;-82
2023/01/26 11:42:17;;;;;;;32.50;3.80;;;7.10;99.90;;;;;;5068503;28;20121;-82
2023/01/26 11:45:03;;;;;;;39.72;4.93;;;6.90;99.90;;;;;;5084862;28;20053;-82
2023/01/26 11:47:41;;;;;;;;;;;6.70;99.90;;;;;;5097710;28;20144;-87
2023/01/26 11:50:13;;;;;;;33.20;4.68;;;6.50;99.90;;;;;;5077114;28;20364;-83
2023/01/26 11:52:55;;;;;;;36.90;3.95;;;6.40;99.90;;;;;;5077627;28;21219;-83
2023/01/26 11:55:40;;;;;;;25.23;3.67;;;6.30;99.90;;;;;;5067940;28;20075;-82
2023/01/26 11:58:28;;;;;;;24.98;3.22;;;6.30;99.90;;;;;;5069132;28;20047;-82
2023/01/26 12:00:58;;;;;;;28.80;3.20;;;6.30;99.90;;;;;;5063909;28;20085;-82
2023/01/26 12:03:32;;;;;;;20.13;2.40;;;6.30;99.90;;;;;;5068709;28;20048;-82
2023/01/26 12:06:04;;;;;;;23.17;2.70;;;6.30;99.90;;;;;;5097660;28;20495;-82
2023/01/26 12:08:37;;;;;;;19.70;2.72;;;6.30;99.90;;;;;;5079749;28;20047;-82
2023/01/26 12:11:21;;;;;;;26.42;3.80;;;6.40;99.90;;;;;;5097569;28;20036;-82
2023/01/26 12:14:08;;;;;;;26.65;3.58;;;6.60;99.90;;;;;;5080097;28;20047;-82
2023/01/26 12:16:42;;;;;;;15.43;3.35;;;6.90;99.90;;;;;;5078667;28;20096;-83
2023/01/26 12:19:14;;;;;;;27.27;2.70;;;7.20;99.90;;;;;;5077579;28;20048;-82
2023/01/26 12:21:43;;;;;;;22.05;2.70;;;7.20;99.90;;;;;;5090448;28;20125;-82
2023/01/26 12:24:34;;;;;;;18.30;2.50;;;7.20;99.90;;;;;;5070949;28;20374;-82
2023/01/26 12:27:04;;;;;;;19.38;2.53;;;7.10;99.90;;;;;;5090215;28;20045;-82
2023/01/26 12:29:50;;;;;;;21.73;1.98;;;6.80;99.90;;;;;;5074804;28;20078;-84
2023/01/26 12:32:16;;;;;;;15.93;2.00;;;6.70;99.90;;;;;;5065135;28;20534;-84
2023/01/26 12:34:42;;;;;;;20.50;2.95;;;6.70;99.90;;;;;;5060305;28;20051;-83
2023/01/26 12:37:50;;;;;;;14.48;1.75;;;6.60;99.90;;;;;;5058028;28;20049;-85
2023/01/26 12:40:32;;;;;;;23.20;2.50;;;6.70;99.90;;;;;;5075466;28;20438;-84
2023/01/26 12:43:17;;;;;;;19.90;2.47;;;6.90;99.90;;;;;;5093407;28;20485;-83
2023/01/26 12:45:48;;;;;;;19.50;2.50;;;7.10;99.90;;;;;;5066884;28;20090;-82
2023/01/26 12:48:20;;;;;;;24.25;2.08;;;7.20;99.90;;;;;;5095689;28;20519;-82
2023/01/26 12:50:56;;;;;;;21.05;2.50;;;7.30;99.90;;;;;;5081876;28;20036;-83
2023/01/26 12:53:32;;;;;;;11.70;2.00;;;7.30;99.90;;;;;;5076269;28;20633;-89
2023/01/26 12:56:14;;;;;;;15.13;2.05;;;7.30;99.90;;;;;;5089869;28;20048;-83
2023/01/26 12:58:45;;;;;;;16.92;2.30;;;7.30;99.90;;;;;;5076165;28;20156;-83
2023/01/26 13:01:21;;;;;;;17.02;2.13;;;7.40;99.90;;;;;;5083747;28;20048;-78
2023/01/26 13:04:03;;;;;;;18.20;2.30;;;7.40;99.90;;;;;;5080270;28;20055;-83
2023/01/26 13:06:28;;;;;;;14.88;1.95;;;7.50;99.90;;;;;;5069747;28;20047;-83
2023/01/26 13:08:58;;;;;;;22.02;2.22;;;7.50;99.90;;;;;;5076015;28;20044;-82
2023/01/26 13:11:43;;;;;;;18.65;2.00;;;7.60;99.90;;;;;;5087757;28;20047;-86
2023/01/26 13:14:32;;;;;;;14.02;1.73;;;7.50;99.90;;;;;;5079498;28;20047;-83
2023/01/26 13:17:16;;;;;;;11.82;1.85;;;7.60;99.90;;;;;;5080277;28;20052;-85
2023/01/26 13:19:42;;;;;;;16.50;2.47;;;7.50;99.90;;;;;;5088146;28;20044;-84
2023/01/26 13:22:23;;;;;;;19.27;2.53;;;7.50;99.90;;;;;;5090538;28;20048;-85
2023/01/26 13:24:56;;;;;;;19.45;2.65;;;7.50;99.90;;;;;;5093475;28;20052;-83
2023/01/26 13:27:56;;;;;;;21.00;2.92;;;7.50;99.90;;;;;;5079643;28;20106;-86
2023/01/26 13:30:25;;;;;;;22.17;3.13;;;7.40;99.90;;;;;;5076823;28;20051;-83
2023/01/26 13:32:53;;;;;;;19.50;2.53;;;7.30;99.90;;;;;;5084944;28;20047;-83
2023/01/26 13:35:22;;;;;;;13.85;2.15;;;7.30;99.90;;;;;;5072410;28;20098;-83
2023/01/26 13:37:59;;;;;;;18.98;2.30;;;7.30;99.90;;;;;;5058307;28;20040;-83
2023/01/26 13:40:29;;;;;;;13.90;1.90;;;7.20;99.90;;;;;;5080979;28;20375;-83
2023/01/26 13:43:11;;;;;;;14.43;2.20;;;7.20;99.90;;;;;;5076342;28;20405;-86
2023/01/26 13:46:18;;;;;;;14.25;1.75;;;7.30;99.90;;;;;;5063477;28;20387;-84
2023/01/26 13:48:54;;;;;;;11.43;1.92;;;7.40;99.90;;;;;;5001486;28;20523;-83
2023/01/26 13:51:31;;;;;;;8.05;1.65;;;7.30;99.90;;;;;;5081401;28;20044;-84
2023/01/26 13:54:11;;;;;;;11.88;1.95;;;7.20;99.90;;;;;;5076390;28;20139;-87
2023/01/26 13:56:47;;;;;;;10.35;1.38;;;7.20;99.90;;;;;;5070634;28;20048;-83
2023/01/26 13:59:16;;;;;;;11.25;1.52;;;7.10;99.90;;;;;;5071133;28;20675;-84
2023/01/26 14:01:53;;;;;;;10.70;1.63;;;7.10;99.90;;;;;;5074113;28;20076;-83
2023/01/26 14:04:23;;;;;;;10.18;1.25;;;7.00;99.90;;;;;;5071681;28;20040;-84
2023/01/26 14:06:55;;;;;;;13.48;1.30;;;7.00;99.90;;;;;;5066895;28;20048;-84
2023/01/26 14:09:21;;;;;;;13.48;1.45;;;6.80;99.90;;;;;;5079153;28;20040;-83
2023/01/26 14:12:00;;;;;;;7.90;1.40;;;6.80;99.90;;;;;;5054665;28;20036;-84
2023/01/26 14:14:33;;;;;;;10.52;1.23;;;6.70;99.90;;;;;;5074305;28;20079;-83
2023/01/26 14:17:04;;;;;;;13.02;1.25;;;6.70;99.90;;;;;;5074318;28;20105;-83